Time;durP1;ratioP1;P1;durP2;ratioP2;P2;SDS_P1;SDS_P2;PMS_P1;PMS_P2;Temp;Humidity;BMP_temperature;BMP_pressure;BME280_temperature;BME280_humidity;BME280_pressure;Samples;Min_cycle;Max_cycle;Signal;HPM_P1;HPM_P2
2020/12/11 00:00:15;;;;;;;6.30;5.20;;;-1.10;99.90;;;;;;4991677;28;20851;-74
2020/12/11 00:02:41;;;;;;;6.90;5.07;;;-0.90;99.90;;;;;;4990504;28;20389;-74
2020/12/11 00:05:07;;;;;;;4.95;4.07;;;-0.40;99.90;;;;;;4992051;28;20383;-75
2020/12/11 00:07:36;;;;;;;6.10;4.80;;;0.20;99.90;;;;;;4991154;28;20386;-76
2020/12/11 00:10:07;;;;;;;6.07;4.70;;;-0.90;99.90;;;;;;4992030;28;20383;-75
2020/12/11 00:12:33;;;;;;;7.03;5.00;;;-0.10;99.90;;;;;;4991665;28;20414;-76
2020/12/11 00:14:59;;;;;;;5.75;4.38;;;-0.90;99.90;;;;;;4991658;28;20469;-74
2020/12/11 00:17:26;;;;;;;5.67;4.60;;;-0.70;99.90;;;;;;4991497;28;20387;-74
2020/12/11 00:19:53;;;;;;;6.88;4.75;;;-0.50;99.90;;;;;;4990804;28;20527;-74
2020/12/11 00:22:19;;;;;;;5.80;4.55;;;-0.90;99.90;;;;;;4990096;28;20965;-74
2020/12/11 00:24:44;;;;;;;5.43;4.30;;;1.00;99.90;;;;;;4990529;28;20406;-74
2020/12/11 00:27:10;;;;;;;6.28;4.50;;;-0.40;99.90;;;;;;4991213;28;20394;-74
2020/12/11 00:29:36;;;;;;;6.70;4.60;;;-0.50;99.90;;;;;;4990681;28;20893;-76
2020/12/11 00:32:03;;;;;;;5.80;4.20;;;-0.70;99.90;;;;;;5007934;28;20400;-74
2020/12/11 00:34:30;;;;;;;5.40;4.00;;;-0.80;99.90;;;;;;5010921;28;20389;-74
2020/12/11 00:36:55;;;;;;;5.33;4.10;;;1.30;99.90;;;;;;5010167;28;20388;-74
2020/12/11 00:39:21;;;;;;;5.00;4.20;;;-0.90;99.90;;;;;;5011124;28;20381;-74
2020/12/11 00:41:46;;;;;;;4.43;4.03;;;-0.80;99.90;;;;;;5009794;28;20415;-74
2020/12/11 00:44:12;;;;;;;5.70;4.20;;;1.40;99.90;;;;;;5011043;28;20779;-74
2020/12/11 00:46:38;;;;;;;8.67;4.47;;;-1.30;99.90;;;;;;5010004;28;20387;-74
2020/12/11 00:49:03;;;;;;;5.18;4.07;;;-1.10;99.90;;;;;;5010625;28;20858;-74
2020/12/11 00:51:29;;;;;;;5.35;3.67;;;-0.80;99.90;;;;;;5010318;28;20388;-74
2020/12/11 00:53:55;;;;;;;5.00;3.70;;;-0.80;99.90;;;;;;5009757;28;20446;-74
2020/12/11 00:56:23;;;;;;;5.03;3.60;;;-0.50;99.90;;;;;;5009014;28;20472;-74
2020/12/11 00:58:49;;;;;;;4.38;3.45;;;-0.90;99.90;;;;;;5009430;28;20957;-74
2020/12/11 01:01:14;;;;;;;5.07;4.10;;;-1.20;99.90;;;;;;5010313;28;20416;-74
2020/12/11 01:03:40;;;;;;;3.60;3.13;;;-0.50;99.90;;;;;;5009912;28;20889;-74
2020/12/11 01:06:06;;;;;;;5.10;3.60;;;-0.70;99.90;;;;;;5010616;28;20388;-75
2020/12/11 01:08:31;;;;;;;6.28;4.30;;;-0.70;99.90;;;;;;5010327;28;20418;-74
2020/12/11 01:10:57;;;;;;;5.80;4.20;;;2.10;99.90;;;;;;5009699;28;20381;-74
2020/12/11 01:13:22;;;;;;;4.73;3.67;;;-0.60;99.90;;;;;;5010030;28;20479;-74
2020/12/11 01:15:48;;;;;;;4.93;3.90;;;-0.70;99.90;;;;;;5009612;28;20380;-74
2020/12/11 01:18:14;;;;;;;5.40;4.40;;;0.80;99.90;;;;;;5010907;28;20980;-74
2020/12/11 01:20:39;;;;;;;4.75;3.58;;;-0.80;99.90;;;;;;5010140;28;20958;-74
2020/12/11 01:23:05;;;;;;;4.60;3.80;;;-0.50;99.90;;;;;;5009641;28;20410;-74
2020/12/11 01:25:31;;;;;;;3.60;3.13;;;1.00;99.90;;;;;;4993022;28;20405;-74
2020/12/11 01:27:57;;;;;;;5.82;3.38;;;-0.60;99.90;;;;;;5009631;28;21107;-74
2020/12/11 01:30:22;;;;;;;4.03;3.10;;;-0.60;99.90;;;;;;5007065;28;20391;-74
2020/12/11 01:32:48;;;;;;;3.90;2.90;;;-0.20;99.90;;;;;;4990348;28;20461;-74
2020/12/11 01:35:13;;;;;;;3.90;3.37;;;-0.80;99.90;;;;;;4991044;28;20560;-74
2020/12/11 01:37:39;;;;;;;3.72;2.72;;;-0.80;99.90;;;;;;4990527;28;20386;-76
2020/12/11 01:40:05;;;;;;;4.03;3.13;;;-0.70;99.90;;;;;;4989735;28;20386;-74
2020/12/11 01:42:31;;;;;;;5.22;3.13;;;-0.70;99.90;;;;;;4991105;28;20441;-74
2020/12/11 01:44:57;;;;;;;4.47;3.35;;;0.20;99.90;;;;;;4990115;28;20383;-74
2020/12/11 01:47:23;;;;;;;3.47;2.67;;;-0.50;99.90;;;;;;4991024;28;20397;-74
2020/12/11 01:49:52;;;;;;;3.20;2.90;;;-0.20;99.90;;;;;;4990422;28;20379;-74
2020/12/11 01:52:19;;;;;;;4.50;3.00;;;-0.80;99.90;;;;;;4990768;28;20394;-74
2020/12/11 01:54:46;;;;;;;3.97;2.60;;;-0.30;99.90;;;;;;4990264;28;20389;-74
2020/12/11 01:57:41;;;;;;;3.70;2.72;;;-0.70;99.90;;;;;;4990546;28;20526;-74
2020/12/11 02:00:08;;;;;;;4.22;2.90;;;-0.90;99.90;;;;;;4991015;28;20795;-74
2020/12/11 02:02:38;;;;;;;4.53;3.05;;;0.40;99.90;;;;;;4991216;28;20740;-75
2020/12/11 02:05:08;;;;;;;3.50;2.60;;;-1.10;99.90;;;;;;4990681;28;20387;-74
2020/12/11 02:07:40;;;;;;;2.78;2.47;;;1.00;99.90;;;;;;4990694;28;20375;-74
2020/12/11 02:10:10;;;;;;;3.78;2.90;;;-1.10;99.90;;;;;;4990715;28;20453;-74
2020/12/11 02:12:37;;;;;;;3.20;2.70;;;-0.20;99.90;;;;;;4990777;28;20391;-74
2020/12/11 02:15:05;;;;;;;2.90;2.28;;;-0.90;99.90;;;;;;4990142;28;20402;-73
2020/12/11 02:17:31;;;;;;;2.25;2.00;;;-0.60;99.90;;;;;;4991084;28;20394;-73
2020/12/11 02:19:57;;;;;;;3.22;2.50;;;-0.90;99.90;;;;;;4990040;28;20421;-73
2020/12/11 02:22:23;;;;;;;3.10;2.40;;;-0.60;99.90;;;;;;4990636;28;20520;-73
2020/12/11 02:24:50;;;;;;;3.13;2.30;;;-1.10;99.90;;;;;;4991641;28;20954;-74
2020/12/11 02:27:16;;;;;;;3.80;2.70;;;-0.60;99.90;;;;;;4994109;28;20402;-74
2020/12/11 02:29:42;;;;;;;3.28;2.78;;;-0.30;99.90;;;;;;4993750;28;20386;-76
2020/12/11 02:32:09;;;;;;;3.03;2.20;;;0.10;99.90;;;;;;5011882;28;20423;-75
2020/12/11 02:34:35;;;;;;;2.85;2.30;;;1.30;99.90;;;;;;5012505;28;20389;-74
2020/12/11 02:37:02;;;;;;;3.17;2.40;;;-0.80;99.90;;;;;;5012921;28;20464;-74
2020/12/11 02:39:28;;;;;;;2.92;2.15;;;-0.70;99.90;;;;;;5013631;28;20373;-74
2020/12/11 02:41:53;;;;;;;3.17;2.40;;;-1.00;99.90;;;;;;5011626;28;20408;-75
2020/12/11 02:44:19;;;;;;;2.10;1.80;;;1.40;99.90;;;;;;5013489;28;20726;-74
2020/12/11 02:46:45;;;;;;;2.67;1.87;;;-0.50;99.90;;;;;;5012545;28;20385;-75
2020/12/11 02:49:10;;;;;;;3.90;2.30;;;-0.80;99.90;;;;;;5012171;28;20749;-74
2020/12/11 02:51:36;;;;;;;2.80;1.88;;;-0.50;99.90;;;;;;5013355;28;20395;-74
2020/12/11 02:54:02;;;;;;;2.00;1.67;;;-0.10;99.90;;;;;;5012529;28;20389;-74
2020/12/11 02:56:27;;;;;;;1.87;1.70;;;-0.40;99.90;;;;;;5013398;28;20389;-74
2020/12/11 02:58:53;;;;;;;2.73;1.90;;;-0.30;99.90;;;;;;5010784;28;20401;-74
2020/12/11 03:01:19;;;;;;;2.30;1.83;;;-0.50;99.90;;;;;;5012971;28;20900;-74
2020/12/11 03:03:44;;;;;;;2.10;1.90;;;1.70;99.90;;;;;;5012293;28;20420;-76
2020/12/11 03:06:10;;;;;;;2.70;1.80;;;-0.50;99.90;;;;;;5013133;28;20384;-74
2020/12/11 03:08:35;;;;;;;2.40;1.80;;;0.20;99.90;;;;;;5013039;28;20439;-74
2020/12/11 03:11:01;;;;;;;2.00;1.40;;;-0.80;99.90;;;;;;5012294;28;21003;-74
2020/12/11 03:13:27;;;;;;;2.42;1.77;;;-0.60;99.90;;;;;;5013078;28;20460;-74
2020/12/11 03:15:52;;;;;;;2.45;1.50;;;-0.10;99.90;;;;;;5012586;28;20749;-74
2020/12/11 03:18:18;;;;;;;2.10;1.42;;;2.40;99.90;;;;;;5012883;28;20380;-74
2020/12/11 03:20:44;;;;;;;1.43;1.33;;;-0.30;99.90;;;;;;5012258;28;20413;-76
2020/12/11 03:23:10;;;;;;;1.27;1.17;;;0.10;99.90;;;;;;5012285;28;20400;-74
2020/12/11 03:25:36;;;;;;;2.55;1.42;;;0.80;99.90;;;;;;5012618;28;20409;-74
2020/12/11 03:28:01;;;;;;;1.80;1.30;;;0.10;99.90;;;;;;5011929;28;20458;-74
2020/12/11 03:30:28;;;;;;;2.40;1.50;;;-0.60;99.90;;;;;;5008303;28;20477;-74
2020/12/11 03:32:54;;;;;;;1.50;1.10;;;-0.50;99.90;;;;;;4990937;28;20393;-74
2020/12/11 03:35:20;;;;;;;2.63;1.47;;;-0.40;99.90;;;;;;4992873;28;20383;-74
2020/12/11 03:37:45;;;;;;;1.80;1.27;;;-0.60;99.90;;;;;;4992431;28;20422;-76
2020/12/11 03:40:11;;;;;;;1.60;1.20;;;2.40;99.90;;;;;;4992586;28;20390;-75
2020/12/11 03:42:36;;;;;;;1.57;1.23;;;0.60;99.90;;;;;;4992832;28;20811;-74
2020/12/11 03:45:03;;;;;;;1.70;1.20;;;2.20;99.90;;;;;;4991740;28;20391;-74
2020/12/11 03:47:30;;;;;;;1.43;1.10;;;-0.10;99.90;;;;;;4992884;28;20386;-74
2020/12/11 03:49:56;;;;;;;1.73;1.23;;;0.40;99.90;;;;;;4991883;28;20383;-74
2020/12/11 03:52:21;;;;;;;2.60;1.10;;;-0.10;99.90;;;;;;4992975;28;20402;-74
2020/12/11 03:54:47;;;;;;;0.90;0.90;;;1.90;99.90;;;;;;4991720;28;20962;-76
2020/12/11 03:57:13;;;;;;;1.67;1.13;;;0.30;99.90;;;;;;4992457;28;20464;-74
2020/12/11 03:59:38;;;;;;;1.48;1.10;;;-0.10;99.90;;;;;;4992488;28;20408;-74
2020/12/11 04:02:04;;;;;;;1.85;1.35;;;2.70;99.90;;;;;;4991650;28;21229;-74
2020/12/11 04:04:29;;;;;;;1.20;1.10;;;-0.50;99.90;;;;;;4992361;28;20387;-74
2020/12/11 04:06:55;;;;;;;1.27;0.90;;;0.00;99.90;;;;;;4990196;28;20386;-74
2020/12/11 04:09:21;;;;;;;1.23;0.97;;;2.20;99.90;;;;;;4992248;28;20390;-74
2020/12/11 04:11:46;;;;;;;1.47;1.00;;;0.10;99.90;;;;;;4992026;28;20414;-76
2020/12/11 04:14:12;;;;;;;1.77;1.30;;;0.30;99.90;;;;;;4992091;28;20395;-74
2020/12/11 04:16:38;;;;;;;1.40;1.10;;;2.90;99.90;;;;;;4992461;28;20387;-74
2020/12/11 04:19:04;;;;;;;2.20;1.03;;;0.70;99.90;;;;;;4991262;28;20397;-74
2020/12/11 04:21:29;;;;;;;1.70;1.20;;;0.20;99.90;;;;;;4992188;28;20442;-74
2020/12/11 04:23:55;;;;;;;1.30;1.02;;;2.20;99.90;;;;;;4990769;28;20386;-74
2020/12/11 04:26:21;;;;;;;1.20;1.10;;;1.10;99.90;;;;;;4992126;28;20400;-74
2020/12/11 04:28:46;;;;;;;0.90;0.90;;;2.80;99.90;;;;;;4992126;28;20394;-76
2020/12/11 04:31:12;;;;;;;1.30;1.10;;;1.40;99.90;;;;;;5002041;28;20393;-74
2020/12/11 04:33:38;;;;;;;1.27;0.93;;;2.70;99.90;;;;;;5010180;28;20539;-74
2020/12/11 04:36:04;;;;;;;1.60;1.20;;;0.40;99.90;;;;;;5010657;28;20381;-75
2020/12/11 04:38:29;;;;;;;1.70;1.13;;;2.00;99.90;;;;;;5011331;28;20380;-74
2020/12/11 04:40:59;;;;;;;1.20;1.10;;;0.60;99.90;;;;;;5010395;28;20401;-74
2020/12/11 04:43:25;;;;;;;1.52;0.90;;;0.60;99.90;;;;;;5010255;28;20393;-73
2020/12/11 04:45:51;;;;;;;1.20;0.90;;;2.70;99.90;;;;;;5010583;28;20384;-75
2020/12/11 04:48:17;;;;;;;1.20;0.90;;;3.10;99.90;;;;;;5010513;28;20876;-74
2020/12/11 04:50:43;;;;;;;1.00;0.90;;;0.50;99.90;;;;;;5011108;28;20396;-73
2020/12/11 04:53:14;;;;;;;1.23;1.05;;;1.10;99.90;;;;;;5010526;28;20979;-74
2020/12/11 04:55:46;;;;;;;1.45;0.80;;;0.70;99.90;;;;;;5011197;28;20389;-74
2020/12/11 04:58:16;;;;;;;1.20;1.10;;;0.90;99.90;;;;;;5010229;28;20464;-74
2020/12/11 05:00:42;;;;;;;0.87;0.70;;;0.50;99.90;;;;;;5010927;28;20761;-74
2020/12/11 05:03:13;;;;;;;1.20;0.70;;;1.30;99.90;;;;;;5010721;28;20388;-73
2020/12/11 05:05:39;;;;;;;1.00;0.90;;;0.60;99.90;;;;;;5010106;28;20558;-74
2020/12/11 05:08:19;;;;;;;1.33;0.98;;;0.50;99.90;;;;;;5009290;28;20453;-74
2020/12/11 05:10:46;;;;;;;1.20;0.80;;;0.90;99.90;;;;;;5011298;28;20463;-74
2020/12/11 05:13:23;;;;;;;0.70;0.70;;;2.80;99.90;;;;;;5010301;28;20887;-74
2020/12/11 05:16:12;;;;;;;1.40;0.73;;;0.90;99.90;;;;;;5010069;28;20381;-74
2020/12/11 05:18:38;;;;;;;0.80;0.73;;;0.80;99.90;;;;;;5011381;28;20395;-74
2020/12/11 05:21:21;;;;;;;1.40;0.90;;;1.40;99.90;;;;;;5009024;28;20452;-74
2020/12/11 05:23:59;;;;;;;1.60;0.80;;;0.80;99.90;;;;;;5010942;28;20401;-74
2020/12/11 05:26:27;;;;;;;1.20;0.80;;;0.80;99.90;;;;;;5011305;28;20865;-76
2020/12/11 05:28:52;;;;;;;1.00;0.80;;;0.90;99.90;;;;;;5010767;28;20408;-75
2020/12/11 05:31:18;;;;;;;1.23;0.90;;;0.60;99.90;;;;;;4999322;28;20395;-74
2020/12/11 05:34:02;;;;;;;0.70;0.63;;;0.70;99.90;;;;;;4991737;28;20409;-75
2020/12/11 05:36:29;;;;;;;1.00;0.70;;;3.00;99.90;;;;;;4991328;28;20461;-74
2020/12/11 05:38:54;;;;;;;1.33;0.93;;;0.50;99.90;;;;;;4990698;28;20383;-76
2020/12/11 05:41:33;;;;;;;1.53;0.90;;;1.30;99.90;;;;;;4991300;28;20424;-75
2020/12/11 05:43:59;;;;;;;1.55;1.02;;;3.30;99.90;;;;;;4990335;28;20432;-73
2020/12/11 05:46:31;;;;;;;1.65;1.30;;;3.60;99.90;;;;;;4991159;28;20473;-75
2020/12/11 05:48:58;;;;;;;2.00;1.30;;;1.20;99.90;;;;;;4990686;28;20383;-76
2020/12/11 05:51:25;;;;;;;2.33;1.50;;;2.10;99.90;;;;;;4991281;28;20398;-75
2020/12/11 05:53:56;;;;;;;1.40;1.08;;;3.40;99.90;;;;;;4990951;28;20859;-76
2020/12/11 05:56:22;;;;;;;1.35;1.08;;;2.40;99.90;;;;;;4990157;28;20391;-75
2020/12/11 05:58:51;;;;;;;1.40;1.10;;;1.10;99.90;;;;;;4991757;28;20398;-74
2020/12/11 06:01:18;;;;;;;1.90;1.42;;;1.10;99.90;;;;;;4994435;28;20418;-74
2020/12/11 06:03:46;;;;;;;1.95;1.20;;;2.30;99.90;;;;;;4995021;28;20382;-75
2020/12/11 06:06:15;;;;;;;1.80;1.20;;;1.50;99.90;;;;;;4994334;28;20492;-74
2020/12/11 06:08:43;;;;;;;1.38;1.10;;;1.30;99.90;;;;;;4994918;28;20386;-76
2020/12/11 06:11:17;;;;;;;1.40;1.27;;;3.60;99.90;;;;;;4993969;28;20752;-75
2020/12/11 06:13:51;;;;;;;1.65;1.33;;;1.60;99.90;;;;;;4995245;28;20485;-75
2020/12/11 06:16:21;;;;;;;2.97;1.80;;;3.10;99.90;;;;;;4993798;28;20871;-75
2020/12/11 06:18:52;;;;;;;2.08;1.30;;;1.40;99.90;;;;;;4995014;28;20378;-75
2020/12/11 06:21:19;;;;;;;2.30;1.40;;;3.10;99.90;;;;;;4994053;28;20410;-76
2020/12/11 06:23:44;;;;;;;1.92;1.50;;;1.50;99.90;;;;;;4993304;28;20395;-74
2020/12/11 06:26:14;;;;;;;1.88;1.48;;;1.30;99.90;;;;;;4993856;28;20397;-76
2020/12/11 06:28:45;;;;;;;2.10;1.35;;;1.20;99.90;;;;;;4994362;28;20400;-75
2020/12/11 06:31:15;;;;;;;2.30;1.50;;;3.40;99.90;;;;;;5002494;28;20437;-75
2020/12/11 06:33:44;;;;;;;2.58;1.52;;;1.40;99.90;;;;;;5014094;28;20399;-75
2020/12/11 06:36:10;;;;;;;1.98;1.40;;;1.30;99.90;;;;;;5011951;28;20380;-75
2020/12/11 06:38:47;;;;;;;1.77;1.60;;;3.20;99.90;;;;;;5012891;28;20480;-75
2020/12/11 06:41:34;;;;;;;1.92;1.38;;;1.20;99.90;;;;;;5013145;28;20417;-76
2020/12/11 06:44:20;;;;;;;3.20;1.80;;;1.20;99.90;;;;;;5012822;28;20393;-76
2020/12/11 06:47:08;;;;;;;1.20;1.00;;;1.30;99.90;;;;;;5013318;28;20404;-76
2020/12/11 06:49:34;;;;;;;1.90;1.60;;;1.20;99.90;;;;;;5014001;28;20404;-76
2020/12/11 06:52:02;;;;;;;2.35;1.90;;;1.80;99.90;;;;;;5012739;28;20397;-76
2020/12/11 06:54:28;;;;;;;2.10;1.63;;;;;;;;;;5013521;28;20381;-76
2020/12/11 06:56:59;;;;;;;2.25;1.80;;;1.30;99.90;;;;;;5013580;28;20846;-76
2020/12/11 06:59:39;;;;;;;2.65;1.52;;;1.20;99.90;;;;;;5013738;28;20431;-77
2020/12/11 07:02:08;;;;;;;2.28;1.83;;;3.70;99.90;;;;;;5012690;28;20412;-76
2020/12/11 07:04:54;;;;;;;2.50;2.10;;;2.70;99.90;;;;;;5013701;28;20393;-76
2020/12/11 07:07:28;;;;;;;1.80;1.60;;;1.90;99.90;;;;;;5012107;28;20404;-76
2020/12/11 07:09:54;;;;;;;2.03;1.50;;;1.40;99.90;;;;;;5012785;28;20389;-76
2020/12/11 07:12:19;;;;;;;1.80;1.50;;;1.80;99.90;;;;;;5012273;28;20773;-75
2020/12/11 07:14:46;;;;;;;2.60;1.70;;;1.90;99.90;;;;;;5013467;28;20396;-76
2020/12/11 07:17:29;;;;;;;1.70;1.55;;;1.60;99.90;;;;;;5012760;28;20393;-75
2020/12/11 07:19:56;;;;;;;2.90;2.10;;;2.60;99.90;;;;;;5012934;28;20385;-74
2020/12/11 07:22:22;;;;;;;1.73;1.63;;;1.60;99.90;;;;;;5012267;28;20495;-74
2020/12/11 07:24:48;;;;;;;1.95;1.40;;;1.90;99.90;;;;;;5012759;28;20861;-74
2020/12/11 07:27:13;;;;;;;2.53;1.65;;;3.30;99.90;;;;;;5011859;28;20389;-74
2020/12/11 07:29:50;;;;;;;2.13;1.67;;;2.40;99.90;;;;;;5013245;28;20434;-74
2020/12/11 07:32:22;;;;;;;2.47;1.75;;;1.80;99.90;;;;;;4993098;28;20386;-74
2020/12/11 07:34:48;;;;;;;3.10;2.40;;;1.70;99.90;;;;;;4993500;28;20771;-74
2020/12/11 07:37:15;;;;;;;3.35;1.90;;;2.30;99.90;;;;;;4992780;28;20402;-73
2020/12/11 07:39:40;;;;;;;2.97;1.98;;;3.80;99.90;;;;;;4992998;28;20398;-73
2020/12/11 07:42:08;;;;;;;2.38;2.15;;;2.20;99.90;;;;;;4991994;28;20418;-74
2020/12/11 07:44:36;;;;;;;1.90;1.50;;;3.70;99.90;;;;;;4993070;28;20394;-74
2020/12/11 07:47:12;;;;;;;2.50;2.08;;;2.40;99.90;;;;;;4992682;28;20398;-77
2020/12/11 07:49:39;;;;;;;2.22;1.80;;;2.10;99.90;;;;;;4993127;28;20379;-73
2020/12/11 07:52:05;;;;;;;1.83;1.65;;;4.00;99.90;;;;;;4992200;28;20394;-74
2020/12/11 07:54:41;;;;;;;2.10;1.70;;;2.20;99.90;;;;;;4991888;28;20717;-74
2020/12/11 07:57:08;;;;;;;2.13;1.65;;;1.90;99.90;;;;;;4990718;28;20405;-76
2020/12/11 07:59:33;;;;;;;2.72;2.00;;;2.10;99.90;;;;;;4992805;28;20783;-75
2020/12/11 08:01:59;;;;;;;2.17;1.90;;;1.90;99.90;;;;;;4990424;28;20422;-76
2020/12/11 08:04:25;;;;;;;2.50;1.60;;;0.60;99.90;;;;;;4991473;28;20824;-74
2020/12/11 08:07:00;;;;;;;1.50;1.23;;;3.10;99.90;;;;;;4992226;28;20383;-74
2020/12/11 08:09:32;;;;;;;2.50;1.70;;;2.20;99.90;;;;;;4992184;28;20409;-74
2020/12/11 08:12:16;;;;;;;1.85;1.48;;;2.10;99.90;;;;;;4992164;28;20402;-74
2020/12/11 08:14:46;;;;;;;2.47;1.50;;;4.20;99.90;;;;;;4992116;28;20486;-75
2020/12/11 08:17:14;;;;;;;2.08;1.70;;;4.10;99.90;;;;;;4991449;28;20383;-74
2020/12/11 08:19:41;;;;;;;3.20;1.67;;;4.30;99.90;;;;;;4992095;28;20453;-74
2020/12/11 08:22:11;;;;;;;2.05;1.80;;;3.20;99.90;;;;;;4990181;28;20425;-74
2020/12/11 08:24:36;;;;;;;1.85;1.65;;;3.80;99.90;;;;;;4991804;28;20414;-73
2020/12/11 08:27:02;;;;;;;1.60;1.50;;;4.70;99.90;;;;;;4991858;28;20743;-75
2020/12/11 08:29:28;;;;;;;2.30;1.98;;;3.00;99.90;;;;;;4991764;28;20457;-74
2020/12/11 08:31:53;;;;;;;1.90;1.60;;;4.80;99.90;;;;;;5007755;28;20420;-74
2020/12/11 08:34:19;;;;;;;2.33;2.10;;;4.90;99.90;;;;;;5010861;28;20399;-74
2020/12/11 08:36:46;;;;;;;3.13;2.00;;;3.50;99.90;;;;;;5011694;28;20392;-74
2020/12/11 08:39:28;;;;;;;2.25;1.63;;;2.50;99.90;;;;;;5010747;28;20389;-74
2020/12/11 08:42:28;;;;;;;2.30;2.10;;;2.50;99.90;;;;;;5011480;28;20451;-74
2020/12/11 08:50:29;;;;;;;3.10;2.40;;;4.30;99.90;;;;;;5010715;28;20424;-75
2020/12/11 08:52:55;;;;;;;2.60;1.90;;;2.60;99.90;;;;;;5011469;28;20809;-75
2020/12/11 08:55:21;;;;;;;2.58;1.92;;;5.10;99.90;;;;;;5010760;28;20468;-75
2020/12/11 08:57:49;;;;;;;2.93;1.80;;;2.70;99.90;;;;;;5011431;28;20460;-75
2020/12/11 09:00:16;;;;;;;2.33;1.90;;;5.00;99.90;;;;;;5010292;28;20892;-75
2020/12/11 09:02:42;;;;;;;1.90;1.63;;;2.90;99.90;;;;;;5011208;28;20435;-75
2020/12/11 09:05:07;;;;;;;2.42;2.00;;;2.60;99.90;;;;;;5010104;28;20396;-75
2020/12/11 09:07:33;;;;;;;2.00;1.50;;;3.60;99.90;;;;;;5011246;28;20384;-75
2020/12/11 09:09:59;;;;;;;3.40;1.85;;;3.10;99.90;;;;;;5011304;28;20738;-74
2020/12/11 09:12:24;;;;;;;2.95;2.05;;;2.90;99.90;;;;;;5010670;28;20515;-74
2020/12/11 09:14:50;;;;;;;3.43;2.27;;;3.10;99.90;;;;;;5011203;28;20872;-74
2020/12/11 09:17:16;;;;;;;2.37;1.80;;;3.10;99.90;;;;;;5009122;28;20399;-75
2020/12/11 09:19:41;;;;;;;1.85;1.73;;;3.00;99.90;;;;;;5010770;28;20483;-75
2020/12/11 09:22:07;;;;;;;4.13;3.00;;;5.00;99.90;;;;;;5010138;28;20463;-76
2020/12/11 09:24:33;;;;;;;4.03;3.22;;;3.40;99.90;;;;;;5010430;28;20400;-74
2020/12/11 09:26:58;;;;;;;7.25;4.57;;;3.20;99.90;;;;;;5011118;28;20480;-75
2020/12/11 09:29:30;;;;;;;4.97;3.90;;;3.10;99.90;;;;;;5009987;28;20386;-75
2020/12/11 09:31:58;;;;;;;4.28;3.80;;;2.80;99.90;;;;;;4994790;28;20394;-75
2020/12/11 09:34:24;;;;;;;5.20;3.70;;;3.10;99.90;;;;;;4993534;28;20922;-75
2020/12/11 09:36:50;;;;;;;3.22;2.92;;;3.20;99.90;;;;;;4995428;28;20390;-75
2020/12/11 09:39:16;;;;;;;2.78;2.38;;;5.50;99.90;;;;;;4994511;28;20387;-75
2020/12/11 09:41:50;;;;;;;2.70;2.10;;;3.60;99.90;;;;;;4995458;28;20426;-74
2020/12/11 09:47:00;;;;;;;2.60;2.10;;;3.60;99.90;;;;;;4995303;28;20389;-75
2020/12/11 09:49:38;;;;;;;3.10;2.30;;;3.60;99.90;;;;;;4994437;28;20394;-76
2020/12/11 09:52:20;;;;;;;3.00;2.42;;;3.80;99.90;;;;;;4995203;28;20440;-75
2020/12/11 09:54:46;;;;;;;2.50;2.13;;;5.20;99.90;;;;;;4995111;28;20435;-75
2020/12/11 09:57:12;;;;;;;2.23;1.90;;;4.60;99.90;;;;;;4994113;28;20432;-76
2020/12/11 09:59:48;;;;;;;2.50;2.30;;;4.30;99.90;;;;;;4994772;28;20399;-75
2020/12/11 10:04:40;;;;;;;2.60;2.20;;;4.60;99.90;;;;;;4993416;28;20930;-75
2020/12/11 10:07:06;;;;;;;3.63;2.40;;;4.80;99.90;;;;;;4993790;28;20803;-75
2020/12/11 10:09:31;;;;;;;2.60;2.28;;;4.50;99.90;;;;;;4993985;28;20395;-75
2020/12/11 10:12:00;;;;;;;2.50;2.13;;;4.90;99.90;;;;;;4994433;28;20414;-75
2020/12/11 10:14:30;;;;;;;2.70;2.33;;;5.00;99.90;;;;;;4993695;28;21243;-76
2020/12/11 10:16:57;;;;;;;3.10;2.67;;;4.40;99.90;;;;;;4994699;28;20402;-75
2020/12/11 10:19:24;;;;;;;2.72;2.35;;;5.70;99.90;;;;;;4993451;28;20402;-76
2020/12/11 10:21:51;;;;;;;3.00;2.70;;;6.60;99.90;;;;;;4994573;28;20484;-75
2020/12/11 10:24:18;;;;;;;3.47;2.60;;;4.90;99.90;;;;;;4993353;28;20434;-75
2020/12/11 10:26:45;;;;;;;2.38;2.17;;;5.00;99.90;;;;;;4994156;28;20406;-75
2020/12/11 10:29:11;;;;;;;3.60;2.60;;;5.50;99.90;;;;;;4993924;28;20386;-76
2020/12/11 10:31:41;;;;;;;4.07;2.63;;;5.60;99.90;;;;;;5008191;28;20389;-75
2020/12/11 10:34:14;;;;;;;3.70;2.55;;;5.40;99.90;;;;;;5014127;28;20565;-76
2020/12/11 10:36:40;;;;;;;2.70;2.20;;;6.10;99.90;;;;;;5014216;28;20735;-76
2020/12/11 10:39:07;;;;;;;3.50;2.58;;;5.90;99.90;;;;;;5013810;28;20393;-75
2020/12/11 10:41:33;;;;;;;2.90;2.50;;;5.90;99.90;;;;;;5013107;28;20418;-75
2020/12/11 10:43:59;;;;;;;3.75;2.00;;;6.00;99.90;;;;;;5013985;28;20408;-76
2020/12/11 10:46:26;;;;;;;3.73;2.60;;;6.00;99.90;;;;;;5012024;28;20389;-76
2020/12/11 10:48:52;;;;;;;2.40;2.00;;;5.90;99.90;;;;;;5013712;28;20399;-76
2020/12/11 10:51:19;;;;;;;3.50;2.25;;;6.20;99.90;;;;;;5012822;28;20389;-76
2020/12/11 10:53:46;;;;;;;2.60;2.00;;;6.30;99.90;;;;;;5013996;28;20381;-76
2020/12/11 10:56:12;;;;;;;2.00;1.80;;;6.10;99.90;;;;;;5013019;28;20383;-77
2020/12/11 10:58:38;;;;;;;1.90;1.63;;;6.30;99.90;;;;;;5012268;28;20385;-76
2020/12/11 11:01:06;;;;;;;2.45;1.65;;;6.40;99.90;;;;;;5013748;28;20427;-76
2020/12/11 11:03:33;;;;;;;2.80;2.00;;;7.60;99.90;;;;;;5012532;28;20464;-76
2020/12/11 11:06:07;;;;;;;2.25;1.70;;;6.00;99.90;;;;;;5013504;28;20461;-75
2020/12/11 11:08:51;;;;;;;3.45;1.90;;;6.60;99.90;;;;;;5012732;28;20409;-75
2020/12/11 11:11:21;;;;;;;2.53;1.70;;;6.80;99.90;;;;;;5019060;28;20419;-75
2020/12/11 11:16:30;;;;;;;2.28;1.75;;;6.90;99.90;;;;;;5012567;28;20395;-75
2020/12/11 11:19:02;;;;;;;2.00;1.80;;;7.10;99.90;;;;;;5013417;28;20417;-75
2020/12/11 11:27:08;;;;;;;1.85;1.50;;;7.50;99.90;;;;;;5013031;28;20440;-75
2020/12/11 11:29:34;;;;;;;6.40;4.47;;;7.10;99.90;;;;;;5012241;28;20391;-76
2020/12/11 11:32:00;;;;;;;7.65;5.05;;;7.90;99.90;;;;;;4996262;28;20399;-75
2020/12/11 11:34:25;;;;;;;7.82;5.00;;;6.20;99.90;;;;;;4992536;28;20390;-75
2020/12/11 11:36:52;;;;;;;6.20;4.75;;;6.50;99.90;;;;;;4993249;28;20383;-77
2020/12/11 11:39:18;;;;;;;5.03;4.35;;;5.10;99.90;;;;;;4992380;28;20783;-76
2020/12/11 11:41:45;;;;;;;6.00;5.00;;;6.80;99.90;;;;;;4993111;28;20501;-75
2020/12/11 11:46:42;;;;;;;6.90;4.65;;;4.80;99.90;;;;;;4993190;28;20396;-75
2020/12/11 11:49:09;;;;;;;6.53;4.47;;;5.40;99.90;;;;;;4992788;28;20471;-76
2020/12/11 11:51:42;;;;;;;7.63;5.43;;;4.70;99.90;;;;;;4992275;28;21095;-75
2020/12/11 11:54:08;;;;;;;6.60;5.07;;;6.60;99.90;;;;;;4992879;28;20444;-75
2020/12/11 11:56:33;;;;;;;10.20;5.38;;;5.20;99.90;;;;;;4992141;28;20391;-76
2020/12/11 11:58:59;;;;;;;5.38;4.40;;;6.20;99.90;;;;;;4992949;28;20418;-75
2020/12/11 12:01:25;;;;;;;6.88;5.43;;;6.80;99.90;;;;;;4991891;28;20433;-76
2020/12/11 12:03:50;;;;;;;7.82;5.70;;;5.80;99.90;;;;;;4992742;28;20386;-74
2020/12/11 12:06:22;;;;;;;6.60;5.20;;;6.20;99.90;;;;;;4992091;28;20756;-76
2020/12/11 12:08:48;;;;;;;6.63;5.20;;;4.20;99.90;;;;;;4992722;28;20585;-76
2020/12/11 12:11:14;;;;;;;7.63;5.53;;;4.00;99.90;;;;;;4992628;28;20473;-77
2020/12/11 12:13:40;;;;;;;8.73;6.40;;;3.70;99.90;;;;;;4992162;28;20867;-75
2020/12/11 12:16:06;;;;;;;8.63;6.00;;;3.90;99.90;;;;;;4992167;28;20493;-76
2020/12/11 12:18:32;;;;;;;6.85;5.30;;;4.80;99.90;;;;;;4991750;28;20394;-76
2020/12/11 12:21:05;;;;;;;8.93;6.10;;;3.80;99.90;;;;;;4992353;28;20428;-76
2020/12/11 12:27:21;;;;;;;10.00;7.35;;;6.20;99.90;;;;;;4991507;28;20807;-76
2020/12/11 12:29:17;;;;;;;8.43;6.10;;;3.20;99.90;;;;;;4997859;28;20489;-76
2020/12/11 12:31:51;;;;;;;8.70;6.10;;;3.20;99.90;;;;;;5005129;28;20625;-76
2020/12/11 12:37:16;;;;;;;7.07;6.38;;;3.50;99.90;;;;;;5011888;28;20392;-76
2020/12/11 12:45:11;;;;;;;6.90;6.05;;;3.90;99.90;;;;;;4990469;28;20396;-76
2020/12/11 12:47:38;;;;;;;8.57;7.05;;;3.90;99.90;;;;;;5000929;28;20533;-75
2020/12/11 12:50:07;;;;;;;8.00;6.30;;;3.70;99.90;;;;;;5005130;28;20526;-76
2020/12/11 12:52:33;;;;;;;7.85;6.07;;;3.80;99.90;;;;;;4992560;28;20405;-74
2020/12/11 12:54:59;;;;;;;7.43;6.37;;;4.90;99.90;;;;;;5006373;28;20449;-76
2020/12/11 12:57:30;;;;;;;7.17;6.13;;;;;;;;;;5000663;28;20402;-76
2020/12/11 13:02:36;;;;;;;8.30;6.80;;;4.00;99.90;;;;;;5006416;28;20417;-77
2020/12/11 13:07:31;;;;;;;6.55;5.60;;;4.20;99.90;;;;;;5004253;28;20928;-76
2020/12/11 13:09:56;;;;;;;8.15;5.07;;;4.30;99.90;;;;;;5011168;28;20443;-75
2020/12/11 13:12:22;;;;;;;6.40;5.40;;;4.90;99.90;;;;;;5010460;28;20385;-76
2020/12/11 13:14:48;;;;;;;7.43;5.90;;;5.00;99.90;;;;;;5011068;28;20426;-75
2020/12/11 13:17:14;;;;;;;7.17;5.20;;;4.80;99.90;;;;;;5009939;28;20395;-75
2020/12/11 13:19:40;;;;;;;8.10;5.70;;;6.10;99.90;;;;;;5010325;28;20552;-75
2020/12/11 13:27:23;;;;;;;4.63;3.03;;;5.60;99.90;;;;;;4995518;28;20400;-75
2020/12/11 13:29:49;;;;;;;3.00;2.70;;;6.50;99.90;;;;;;4991355;28;20469;-76
2020/12/11 13:32:15;;;;;;;2.90;2.50;;;5.30;99.90;;;;;;5008822;28;20397;-75
2020/12/11 13:34:41;;;;;;;2.42;2.20;;;5.50;99.90;;;;;;5010189;28;20528;-74
2020/12/11 13:37:07;;;;;;;2.95;2.45;;;5.50;99.90;;;;;;5010849;28;20412;-72
2020/12/11 13:39:32;;;;;;;2.63;2.28;;;5.30;99.90;;;;;;5010305;28;20387;-72
2020/12/11 13:41:58;;;;;;;3.00;2.30;;;6.70;99.90;;;;;;5010966;28;20416;-76